createdAt,value
2022-09-07T00:00:39.360Z,20.66
2022-09-07T00:03:06.550Z,20.68
2022-09-07T00:05:33.719Z,20.65
2022-09-07T00:08:00.548Z,20.59
2022-09-07T00:10:27.621Z,20.55
2022-09-07T00:12:54.317Z,20.52
2022-09-07T00:15:20.978Z,20.45
2022-09-07T00:17:47.645Z,20.32
2022-09-07T00:20:15.162Z,20.30
2022-09-07T00:22:42.070Z,20.29
2022-09-07T00:25:09.641Z,20.31
2022-09-07T00:27:36.309Z,20.35
2022-09-07T00:30:03.350Z,20.34
2022-09-07T00:32:30.077Z,20.33
2022-09-07T00:34:56.749Z,20.19
2022-09-07T00:37:23.625Z,20.17
2022-09-07T00:39:50.608Z,20.20
2022-09-07T00:42:20.772Z,20.21
2022-09-07T00:44:56.673Z,20.29
2022-09-07T00:47:50.340Z,20.23
2022-09-07T00:50:24.153Z,20.15
2022-09-07T00:52:56.786Z,20.11
2022-09-07T00:55:25.033Z,20.06
2022-09-07T00:57:55.130Z,20.00
2022-09-07T01:00:22.106Z,19.90
2022-09-07T01:02:52.410Z,19.80
2022-09-07T01:05:31.855Z,19.66
2022-09-07T01:07:59.698Z,19.53
2022-09-07T01:10:30.742Z,19.51
2022-09-07T01:12:58.915Z,19.54
2022-09-07T01:15:50.719Z,19.59
2022-09-07T01:18:35.531Z,19.57
2022-09-07T01:21:07.950Z,19.43
2022-09-07T01:24:00.400Z,19.60
2022-09-07T01:26:51.781Z,19.64
2022-09-07T01:29:50.146Z,19.60
2022-09-07T01:32:24.018Z,19.58
2022-09-07T01:34:53.526Z,19.49
2022-09-07T01:37:28.816Z,19.45
2022-09-07T01:40:09.942Z,19.23
2022-09-07T01:43:02.516Z,18.96
2022-09-07T01:45:34.502Z,18.96
2022-09-07T01:48:06.238Z,18.81
2022-09-07T01:50:44.853Z,18.90
2022-09-07T01:53:17.693Z,18.91
2022-09-07T01:55:50.656Z,18.80
2022-09-07T01:58:42.510Z,18.48
2022-09-07T02:01:14.199Z,18.39
2022-09-07T02:03:43.674Z,18.56
2022-09-07T02:06:26.734Z,18.60
2022-09-07T02:09:03.404Z,18.46
2022-09-07T02:11:39.716Z,18.53
2022-09-07T02:14:26.591Z,18.55
2022-09-07T02:16:59.386Z,18.68
2022-09-07T02:19:33.794Z,18.75
2022-09-07T02:22:06.372Z,18.62
2022-09-07T02:24:37.827Z,18.51
2022-09-07T02:27:13.073Z,18.46
2022-09-07T02:29:39.875Z,18.54
2022-09-07T02:32:06.657Z,18.69
2022-09-07T02:34:33.703Z,18.66
2022-09-07T02:37:02.221Z,18.76
2022-09-07T02:39:29.339Z,18.84
2022-09-07T02:41:56.096Z,18.58
2022-09-07T02:44:28.549Z,18.49
2022-09-07T02:47:05.321Z,18.59
2022-09-07T02:49:51.422Z,18.48
2022-09-07T02:52:32.929Z,18.43
2022-09-07T02:55:19.304Z,18.38
2022-09-07T02:58:13.539Z,18.37
2022-09-07T03:00:50.398Z,18.42
2022-09-07T03:03:30.470Z,18.57
2022-09-07T03:06:04.364Z,18.47
2022-09-07T03:08:36.744Z,18.38
2022-09-07T03:11:05.349Z,18.43
2022-09-07T03:13:32.865Z,18.22
2022-09-07T03:15:59.733Z,18.21
2022-09-07T03:18:28.200Z,18.42
2022-09-07T03:20:55.645Z,18.38
2022-09-07T03:23:22.491Z,18.38
2022-09-07T03:25:49.277Z,18.34
2022-09-07T03:28:16.383Z,18.43
2022-09-07T03:30:44.475Z,18.51
2022-09-07T03:33:11.692Z,18.58
2022-09-07T03:35:38.381Z,18.63
2022-09-07T03:38:05.111Z,18.71
2022-09-07T03:40:31.846Z,18.66
2022-09-07T03:42:58.549Z,18.62
2022-09-07T03:45:25.206Z,18.64
2022-09-07T03:47:51.924Z,18.73
2022-09-07T03:50:18.664Z,18.75
2022-09-07T03:52:45.322Z,18.77
2022-09-07T03:55:11.994Z,18.69
2022-09-07T03:57:40.400Z,18.72
2022-09-07T04:00:08.186Z,18.75
2022-09-07T04:02:34.970Z,18.80
2022-09-07T04:05:01.724Z,18.86
2022-09-07T04:07:28.407Z,18.84
2022-09-07T04:09:55.058Z,18.87
2022-09-07T04:12:21.708Z,18.87
2022-09-07T04:14:48.361Z,18.87
2022-09-07T04:17:15.145Z,18.78
2022-09-07T04:19:41.889Z,18.79
2022-09-07T04:22:08.562Z,18.82
2022-09-07T04:24:35.258Z,18.83
2022-09-07T04:27:02.447Z,18.83
2022-09-07T04:29:29.186Z,18.83
2022-09-07T04:31:55.847Z,18.80
2022-09-07T04:34:22.509Z,18.84
2022-09-07T04:36:49.169Z,18.87
2022-09-07T04:39:15.848Z,18.86
2022-09-07T04:41:42.987Z,18.87
2022-09-07T04:44:13.627Z,18.77
2022-09-07T04:46:42.749Z,19.12
2022-09-07T04:49:11.251Z,18.94
2022-09-07T04:51:39.745Z,18.82
2022-09-07T04:54:07.138Z,18.66
2022-09-07T04:56:34.102Z,18.68
2022-09-07T04:59:04.208Z,18.71
2022-09-07T05:01:31.405Z,18.71
2022-09-07T05:04:01.353Z,18.79
2022-09-07T05:06:28.125Z,18.89
2022-09-07T05:08:55.261Z,19.04
2022-09-07T05:11:28.321Z,19.00
2022-09-07T05:14:00.770Z,19.18
2022-09-07T05:16:28.545Z,19.18
2022-09-07T05:18:58.393Z,19.02
2022-09-07T05:21:27.852Z,19.05
2022-09-07T05:23:56.394Z,19.28
2022-09-07T05:26:25.626Z,18.75
2022-09-07T05:28:52.684Z,19.19
2022-09-07T05:31:22.757Z,19.15
2022-09-07T05:36:38.497Z,19.45
2022-09-07T05:39:06.586Z,19.47
2022-09-07T05:41:33.237Z,19.48
2022-09-07T05:46:46.558Z,19.61
2022-09-07T05:49:13.182Z,19.72
2022-09-07T05:51:39.957Z,19.83
2022-09-07T05:54:06.835Z,19.66
2022-09-07T05:56:36.207Z,19.75
2022-09-07T05:59:03.845Z,19.93
2022-09-07T06:01:31.573Z,19.70
2022-09-07T06:03:58.341Z,19.97
2022-09-07T06:06:25.085Z,19.98
2022-09-07T06:08:53.931Z,20.18
2022-09-07T06:11:23.301Z,19.98
2022-09-07T06:13:50.596Z,19.99
2022-09-07T06:16:18.758Z,19.88
2022-09-07T06:18:48.305Z,19.74
2022-09-07T06:21:17.999Z,20.13
2022-09-07T06:23:45.930Z,20.38
2022-09-07T06:26:13.694Z,20.35
2022-09-07T06:28:42.497Z,20.62
2022-09-07T06:31:16.801Z,20.56
2022-09-07T06:33:44.861Z,20.77
2022-09-07T06:36:23.141Z,20.59
2022-09-07T06:38:51.238Z,20.50
2022-09-07T06:44:05.843Z,20.72
2022-09-07T06:49:19.240Z,20.80
2022-09-07T06:51:45.928Z,20.94
2022-09-07T06:56:59.452Z,21.26
2022-09-07T06:59:26.069Z,21.14
2022-09-07T07:01:52.693Z,21.30
2022-09-07T07:04:19.328Z,21.27
2022-09-07T07:06:45.953Z,21.20
2022-09-07T07:09:14.100Z,21.28
2022-09-07T07:11:43.569Z,21.62
2022-09-07T07:14:17.705Z,21.69
2022-09-07T07:16:44.785Z,21.83
2022-09-07T07:19:11.475Z,21.96
2022-09-07T07:22:03.555Z,22.28
2022-09-07T07:24:24.946Z,22.25
2022-09-07T07:26:51.652Z,22.24
2022-09-07T07:29:19.040Z,22.40
2022-09-07T07:31:47.203Z,22.88
2022-09-07T07:34:14.811Z,22.73
2022-09-07T07:36:41.466Z,22.82
2022-09-07T07:39:08.498Z,23.58
2022-09-07T07:41:56.565Z,23.50
2022-09-07T07:44:25.570Z,23.40
2022-09-07T07:46:52.404Z,23.54
2022-09-07T07:49:19.248Z,23.41
2022-09-07T07:54:36.847Z,23.52
2022-09-07T07:57:05.357Z,23.67
2022-09-07T07:59:32.021Z,23.78
2022-09-07T08:02:04.448Z,23.50
2022-09-07T08:04:32.225Z,23.55
2022-09-07T08:06:58.857Z,23.67
2022-09-07T08:09:26.117Z,23.95
2022-09-07T08:11:53.282Z,23.98
2022-09-07T08:14:19.876Z,23.89
2022-09-07T08:16:46.665Z,24.53
2022-09-07T08:19:13.442Z,24.61
2022-09-07T08:21:40.072Z,24.47
2022-09-07T08:24:07.127Z,25.01
2022-09-07T08:26:33.722Z,25.47
2022-09-07T08:29:00.328Z,25.41
2022-09-07T08:31:27.267Z,25.55
2022-09-07T08:33:53.929Z,25.79
2022-09-07T08:36:21.497Z,25.81
2022-09-07T08:38:48.329Z,25.46
2022-09-07T08:41:26.788Z,25.17
2022-09-07T08:44:00.130Z,25.36
2022-09-07T08:46:29.922Z,25.13
2022-09-07T08:48:59.966Z,25.44
2022-09-07T08:51:45.481Z,25.71
2022-09-07T08:54:14.994Z,25.42
2022-09-07T09:00:08.098Z,25.77
2022-09-07T09:02:42.537Z,26.00
2022-09-07T09:05:36.159Z,26.59
2022-09-07T09:08:21.018Z,26.71
2022-09-07T09:11:20.744Z,26.98
2022-09-07T09:14:04.786Z,27.28
2022-09-07T09:16:42.955Z,27.13
2022-09-07T09:19:19.364Z,27.44
2022-09-07T09:21:46.280Z,27.29
2022-09-07T09:24:19.353Z,27.52
2022-09-07T09:29:20.841Z,27.36
2022-09-07T09:31:48.116Z,27.23
2022-09-07T09:34:23.784Z,27.46
2022-09-07T09:36:55.197Z,27.72
2022-09-07T09:39:36.753Z,27.76
2022-09-07T09:42:17.097Z,27.74
2022-09-07T09:44:44.693Z,27.86
2022-09-07T09:47:38.656Z,27.91
2022-09-07T09:52:29.184Z,27.56
2022-09-07T09:53:06.274Z,27.45
2022-09-07T09:55:36.542Z,27.97
2022-09-07T10:01:24.062Z,28.07
2022-09-07T10:06:20.865Z,29.34
2022-09-07T10:09:02.005Z,29.48
2022-09-07T10:14:37.249Z,29.78
2022-09-07T10:17:33.648Z,30.03
2022-09-07T10:20:02.597Z,30.16
2022-09-07T10:22:38.518Z,29.07
2022-09-07T10:25:41.308Z,29.98
2022-09-07T10:28:11.448Z,29.83
2022-09-07T10:30:47.175Z,29.56
2022-09-07T10:33:40.245Z,30.04
2022-09-07T10:36:06.761Z,30.15
2022-09-07T10:38:40.332Z,29.97
2022-09-07T10:41:09.822Z,29.80
2022-09-07T10:43:45.354Z,29.63
2022-09-07T10:49:37.511Z,29.61
2022-09-07T10:52:23.078Z,30.21
2022-09-07T10:55:08.276Z,30.20
2022-09-07T10:57:46.908Z,30.05
2022-09-07T11:00:21.149Z,29.00
2022-09-07T11:06:02.618Z,29.72
2022-09-07T11:14:31.382Z,29.63
2022-09-07T11:17:03.416Z,29.87
2022-09-07T11:19:55.191Z,30.15
2022-09-07T11:22:35.219Z,30.28
2022-09-07T11:28:07.344Z,30.71
2022-09-07T11:30:40.897Z,30.50
2022-09-07T11:33:17.390Z,31.01
2022-09-07T11:36:14.573Z,31.21
2022-09-07T11:39:01.263Z,31.14
2022-09-07T11:41:30.908Z,31.08
2022-09-07T11:44:04.793Z,31.45
2022-09-07T11:46:45.768Z,31.14
2022-09-07T11:49:23.718Z,30.41
2022-09-07T11:51:56.449Z,30.75
2022-09-07T11:54:51.570Z,30.90
2022-09-07T11:57:30.301Z,31.32
2022-09-07T12:00:11.107Z,31.85
2022-09-07T12:03:00.950Z,31.19
2022-09-07T12:06:06.751Z,31.27
2022-09-07T12:08:51.317Z,31.57
2022-09-07T12:12:09.201Z,31.92
2022-09-07T12:15:13.006Z,32.69
2022-09-07T12:18:03.728Z,33.15
2022-09-07T12:20:45.534Z,33.09
2022-09-07T12:23:17.810Z,32.27
2022-09-07T12:25:46.837Z,32.54
2022-09-07T12:28:21.904Z,32.90
2022-09-07T12:30:56.171Z,33.34
2022-09-07T12:33:26.259Z,33.35
2022-09-07T12:35:55.111Z,33.30
2022-09-07T12:38:31.155Z,33.32
2022-09-07T12:40:59.885Z,33.67
2022-09-07T12:43:35.557Z,33.23
2022-09-07T12:46:03.116Z,32.54
2022-09-07T12:48:49.922Z,32.51
2022-09-07T12:54:23.835Z,33.58
2022-09-07T12:59:53.361Z,34.16
2022-09-07T13:02:48.074Z,34.39
2022-09-07T13:05:37.393Z,34.20
2022-09-07T13:08:25.634Z,34.25
2022-09-07T13:10:52.534Z,34.27
2022-09-07T13:16:11.584Z,34.43
2022-09-07T13:18:41.542Z,34.33
2022-09-07T13:21:12.055Z,34.45
2022-09-07T13:23:40.002Z,34.24
2022-09-07T13:26:09.482Z,34.41
2022-09-07T13:28:56.205Z,34.63
2022-09-07T13:31:43.379Z,34.62
2022-09-07T13:34:34.545Z,33.72
2022-09-07T13:37:03.886Z,33.54
2022-09-07T13:39:39.062Z,33.79
2022-09-07T13:42:06.574Z,33.76
2022-09-07T13:44:34.725Z,33.94
2022-09-07T13:47:21.066Z,34.13
2022-09-07T13:50:15.099Z,34.09
2022-09-07T13:53:01.756Z,33.97
2022-09-07T13:55:46.354Z,33.44
2022-09-07T13:58:22.272Z,32.79
2022-09-07T14:00:54.993Z,32.41
2022-09-07T14:03:24.349Z,32.59
2022-09-07T14:06:27.398Z,32.25
2022-09-07T14:08:55.658Z,31.96
2022-09-07T14:11:46.519Z,32.39
2022-09-07T14:14:24.751Z,32.26
2022-09-07T14:17:00.302Z,32.35
2022-09-07T14:19:40.738Z,32.02
2022-09-07T14:22:15.210Z,32.11
2022-09-07T14:24:48.590Z,32.44
2022-09-07T14:27:25.586Z,32.49
2022-09-07T14:29:52.785Z,32.65
2022-09-07T14:32:24.519Z,32.78
2022-09-07T14:34:52.258Z,32.68
2022-09-07T14:37:22.022Z,32.81
2022-09-07T14:39:50.142Z,32.88
2022-09-07T14:42:22.865Z,32.99
2022-09-07T14:44:50.278Z,32.88
2022-09-07T14:47:32.995Z,32.84
2022-09-07T14:50:05.972Z,32.89
2022-09-07T14:52:43.729Z,32.93
2022-09-07T14:55:35.110Z,33.02
2022-09-07T14:58:22.834Z,33.15
2022-09-07T15:04:02.303Z,32.92
2022-09-07T15:09:36.162Z,33.03
2022-09-07T15:12:36.483Z,33.05
2022-09-07T15:15:26.923Z,33.29
2022-09-07T15:17:55.892Z,33.19
2022-09-07T15:20:46.102Z,33.24
2022-09-07T15:23:17.669Z,33.26
2022-09-07T15:25:50.937Z,33.06
2022-09-07T15:34:10.365Z,32.76
2022-09-07T15:36:40.769Z,32.71
2022-09-07T15:39:14.938Z,32.78
2022-09-07T15:41:42.802Z,32.33
2022-09-07T15:44:09.454Z,31.74
2022-09-07T15:46:37.172Z,31.56
2022-09-07T15:49:04.289Z,31.40
2022-09-07T15:54:17.777Z,30.95
2022-09-07T15:57:48.422Z,31.39
2022-09-07T15:59:31.311Z,31.30
2022-09-07T16:01:58.624Z,30.60
2022-09-07T16:04:25.515Z,30.19
2022-09-07T16:06:52.267Z,30.36
2022-09-07T16:09:21.688Z,30.67
2022-09-07T16:11:50.110Z,30.84
2022-09-07T16:14:18.925Z,30.99
2022-09-07T16:19:34.910Z,31.42
2022-09-07T16:22:02.210Z,31.57
2022-09-07T16:24:29.070Z,31.70
2022-09-07T16:26:55.676Z,31.79
2022-09-07T16:29:22.288Z,31.80
2022-09-07T16:34:35.806Z,31.83
2022-09-07T16:37:02.574Z,31.90
2022-09-07T16:39:29.445Z,31.87
2022-09-07T16:41:56.269Z,31.81
2022-09-07T16:44:23.014Z,31.89
2022-09-07T16:46:50.631Z,31.91
2022-09-07T16:49:17.823Z,31.92
2022-09-07T16:51:45.835Z,31.90
2022-09-07T16:54:14.382Z,32.10
2022-09-07T16:56:40.983Z,32.23
2022-09-07T16:59:11.690Z,32.10
2022-09-07T17:01:38.472Z,32.07
2022-09-07T17:04:10.443Z,31.83
2022-09-07T17:06:37.728Z,31.85
2022-09-07T17:09:04.934Z,31.88
2022-09-07T17:11:33.828Z,31.76
2022-09-07T17:14:01.272Z,31.67
2022-09-07T17:16:35.467Z,31.66
2022-09-07T17:21:53.752Z,31.61
2022-09-07T17:24:21.275Z,31.35
2022-09-07T17:26:48.294Z,31.37
2022-09-07T17:29:14.968Z,31.29
2022-09-07T17:34:30.563Z,30.90
2022-09-07T17:36:57.430Z,30.75
2022-09-07T17:39:24.055Z,30.79
2022-09-07T17:41:54.531Z,30.48
2022-09-07T17:44:23.399Z,30.29
2022-09-07T17:46:50.537Z,30.22
2022-09-07T17:49:17.915Z,30.05
2022-09-07T17:51:45.818Z,29.92
2022-09-07T17:54:17.890Z,29.79
2022-09-07T17:56:45.545Z,29.78
2022-09-07T18:01:59.731Z,29.28
2022-09-07T18:04:26.458Z,29.07
2022-09-07T18:06:54.298Z,28.95
2022-09-07T18:09:21.890Z,28.93
2022-09-07T18:11:49.905Z,28.69
2022-09-07T18:14:18.068Z,28.60
2022-09-07T18:16:46.361Z,28.33
2022-09-07T18:19:13.597Z,28.27
2022-09-07T18:21:42.722Z,28.07
2022-09-07T18:24:20.208Z,28.05
2022-09-07T18:26:50.949Z,27.89
2022-09-07T18:29:36.849Z,27.72
2022-09-07T18:32:08.290Z,27.67
2022-09-07T18:34:36.424Z,27.60
2022-09-07T18:37:03.337Z,27.18
2022-09-07T18:39:30.060Z,27.18
2022-09-07T18:41:56.901Z,26.93
2022-09-07T18:47:21.173Z,26.51
2022-09-07T18:49:50.061Z,26.17
2022-09-07T18:55:04.851Z,26.06
2022-09-07T18:57:31.445Z,25.72
2022-09-07T18:59:58.014Z,25.43
2022-09-07T19:02:24.807Z,25.71
2022-09-07T19:07:38.125Z,25.88
2022-09-07T19:10:06.837Z,25.75
2022-09-07T19:12:33.646Z,25.58
2022-09-07T19:15:00.262Z,25.59
2022-09-07T19:17:26.957Z,25.63
2022-09-07T19:19:53.614Z,25.66
2022-09-07T19:22:20.286Z,25.68
2022-09-07T19:24:47.002Z,25.30
2022-09-07T19:27:13.629Z,24.51
2022-09-07T19:29:40.206Z,25.01
2022-09-07T19:32:07.791Z,25.05
2022-09-07T19:34:43.404Z,25.06
2022-09-07T19:37:12.155Z,25.07
2022-09-07T19:39:39.053Z,24.88
2022-09-07T19:42:06.760Z,24.90
2022-09-07T19:44:33.873Z,24.77
2022-09-07T19:47:01.014Z,24.82
2022-09-07T19:49:28.681Z,24.78
2022-09-07T19:51:55.531Z,24.70
2022-09-07T19:54:22.195Z,24.66
2022-09-07T19:56:48.808Z,24.65
2022-09-07T19:59:15.597Z,24.59
2022-09-07T20:01:46.297Z,24.54
2022-09-07T20:04:20.285Z,24.46
2022-09-07T20:06:49.969Z,24.38
2022-09-07T20:09:18.537Z,24.31
2022-09-07T20:11:47.562Z,24.20
2022-09-07T20:14:19.188Z,24.11
2022-09-07T20:16:45.929Z,24.12
2022-09-07T20:19:16.414Z,24.08
2022-09-07T20:21:43.216Z,24.07
2022-09-07T20:24:14.471Z,23.95
2022-09-07T20:26:41.189Z,23.80
2022-09-07T20:31:55.265Z,23.76
2022-09-07T20:34:21.950Z,23.67
2022-09-07T20:36:52.386Z,23.52
2022-09-07T20:39:20.400Z,23.48
2022-09-07T20:41:47.655Z,23.48
2022-09-07T20:44:14.938Z,23.21
2022-09-07T20:46:41.934Z,23.17
2022-09-07T20:49:09.594Z,22.77
2022-09-07T20:51:36.193Z,22.60
2022-09-07T20:54:02.912Z,22.73
2022-09-07T20:56:29.810Z,22.75
2022-09-07T20:59:00.195Z,22.69
2022-09-07T21:01:28.281Z,22.73
2022-09-07T21:03:57.307Z,22.80
2022-09-07T21:06:25.440Z,22.71
2022-09-07T21:08:52.517Z,22.81
2022-09-07T21:11:23.769Z,22.79
2022-09-07T21:14:00.601Z,22.87
2022-09-07T21:16:27.964Z,22.77
2022-09-07T21:18:57.236Z,22.62
2022-09-07T21:21:25.033Z,22.59
2022-09-07T21:23:59.764Z,22.44
2022-09-07T21:26:28.288Z,22.44
2022-09-07T21:29:00.234Z,22.26
2022-09-07T21:31:28.334Z,22.20
2022-09-07T21:33:56.657Z,22.24
2022-09-07T21:36:23.785Z,22.21
2022-09-07T21:38:51.022Z,21.48
2022-09-07T21:41:19.451Z,21.89
2022-09-07T21:43:46.694Z,21.62
2022-09-07T21:46:16.760Z,21.62
2022-09-07T21:48:45.017Z,21.45
2022-09-07T21:51:13.144Z,21.77
2022-09-07T21:53:40.276Z,21.58
2022-09-07T21:56:10.133Z,21.84
2022-09-07T21:58:37.190Z,21.68
2022-09-07T22:01:17.896Z,21.48
2022-09-07T22:03:47.311Z,21.33
2022-09-07T22:06:14.845Z,21.34
2022-09-07T22:08:42.535Z,21.61
2022-09-07T22:11:14.825Z,21.68
2022-09-07T22:13:42.190Z,21.64
2022-09-07T22:16:09.065Z,21.61
2022-09-07T22:18:37.953Z,21.56
2022-09-07T22:21:05.870Z,21.41
2022-09-07T22:23:34.544Z,21.47
2022-09-07T22:26:01.513Z,21.58
2022-09-07T22:28:31.551Z,21.66
2022-09-07T22:31:29.227Z,21.72
2022-09-07T22:33:56.941Z,21.52
2022-09-07T22:36:46.788Z,21.76
2022-09-07T22:39:16.465Z,21.75
2022-09-07T22:41:44.417Z,21.46
2022-09-07T22:44:16.330Z,21.64
2022-09-07T22:46:44.651Z,21.55
2022-09-07T22:49:13.372Z,21.43
2022-09-07T22:51:40.029Z,21.61
2022-09-07T22:54:06.825Z,21.67
2022-09-07T22:56:34.293Z,21.54
2022-09-07T22:59:03.854Z,21.59
2022-09-07T23:01:31.842Z,21.60
2022-09-07T23:03:59.243Z,21.80
2022-09-07T23:06:34.702Z,21.56
2022-09-07T23:09:08.202Z,21.61
2022-09-07T23:11:35.222Z,21.53
2022-09-07T23:14:04.956Z,21.52
2022-09-07T23:16:31.657Z,21.45
2022-09-07T23:18:59.521Z,21.45
2022-09-07T23:21:27.560Z,21.18
2022-09-07T23:23:57.821Z,21.09
2022-09-07T23:26:26.649Z,21.15
2022-09-07T23:28:55.396Z,20.98
2022-09-07T23:31:22.284Z,20.80
2022-09-07T23:33:49.453Z,20.75
2022-09-07T23:36:17.551Z,20.69
2022-09-07T23:38:48.553Z,20.83
2022-09-07T23:41:19.612Z,20.93
2022-09-07T23:43:46.577Z,20.95
2022-09-07T23:46:14.202Z,20.73
2022-09-07T23:48:43.718Z,20.55
2022-09-07T23:51:10.489Z,20.62
2022-09-07T23:53:37.694Z,20.71
2022-09-07T23:56:04.533Z,20.90
2022-09-07T23:58:31.168Z,20.80
